Time;durP1;ratioP1;P1;durP2;ratioP2;P2;SDS_P1;SDS_P2;PMS_P1;PMS_P2;Temp;Humidity;BMP_temperature;BMP_pressure;BME280_temperature;BME280_humidity;BME280_pressure;Samples;Min_cycle;Max_cycle;Signal;HPM_P1;HPM_P2
2021/01/28 00:01:50;;;;;;;4.27;3.27;;;;;;;;;;5052910;28;20208;-75
2021/01/28 00:07:19;;;;;;;4.80;3.67;;;;;;;;;;5054776;28;20187;-76
2021/01/28 00:09:45;;;;;;;4.60;3.60;;;;;;;;;;5057496;28;20153;-75
2021/01/28 00:12:11;;;;;;;4.10;3.67;;;;;;;;;;5052874;28;20481;-76
2021/01/28 00:14:37;;;;;;;4.60;4.15;;;;;;;;;;5052887;28;20959;-77
2021/01/28 00:17:03;;;;;;;3.93;3.57;;;;;;;;;;5052826;28;20176;-75
2021/01/28 00:22:33;;;;;;;5.43;3.85;;;;;;;;;;5052802;28;20417;-75
2021/01/28 00:24:59;;;;;;;3.43;3.13;;;;;;;;;;5052951;28;20255;-76
2021/01/28 00:27:25;;;;;;;2.67;2.47;;;;;;;;;;5053521;28;20508;-77
2021/01/28 00:29:50;;;;;;;4.30;3.90;;;;;;;;;;5052206;28;20450;-76
2021/01/28 00:32:16;;;;;;;6.20;3.57;;;;;;;;;;5052531;28;20460;-74
2021/01/28 00:37:46;;;;;;;3.38;3.08;;;;;;;;;;5052852;28;20406;-77
2021/01/28 00:40:12;;;;;;;5.17;3.43;;;;;;;;;;5052521;28;20207;-76
2021/01/28 00:42:38;;;;;;;5.18;4.03;;;;;;;;;;5052730;28;20438;-74
2021/01/28 00:45:05;;;;;;;5.53;4.32;;;;;;;;;;5055216;28;20177;-77
2021/01/28 00:47:31;;;;;;;4.07;3.17;;;;;;;;;;5056486;28;20670;-75
2021/01/28 00:53:00;;;;;;;4.32;3.60;;;;;;;;;;5056871;28;20825;-75
2021/01/28 00:55:26;;;;;;;5.13;3.70;;;;;;;;;;5056441;28;20187;-75
2021/01/28 00:57:52;;;;;;;4.10;3.45;;;;;;;;;;5056716;28;20550;-76
2021/01/28 01:00:21;;;;;;;5.72;4.00;;;;;;;;;;5055732;28;20291;-77
2021/01/28 01:02:47;;;;;;;4.13;3.72;;;;;;;;;;5056645;28;20166;-77
2021/01/28 01:08:18;;;;;;;3.72;2.72;;;;;;;;;;5056389;28;20226;-74
2021/01/28 01:10:46;;;;;;;4.50;2.80;;;;;;;;;;5056098;28;20223;-76
2021/01/28 01:13:14;;;;;;;4.78;3.92;;;;;;;;;;5056661;28;20168;-75
2021/01/28 01:15:40;;;;;;;4.78;3.55;;;;;;;;;;5056260;28;20165;-74
2021/01/28 01:18:10;;;;;;;2.92;2.63;;;;;;;;;;5056320;28;20651;-75
2021/01/28 01:20:36;;;;;;;4.00;3.28;;;;;;;;;;5056135;28;20212;-74
2021/01/28 01:23:02;;;;;;;4.40;2.95;;;;;;;;;;5056249;28;20173;-77
2021/01/28 01:25:28;;;;;;;3.60;2.80;;;;;;;;;;5056042;28;20182;-75
2021/01/28 01:27:54;;;;;;;4.40;3.20;;;;;;;;;;5056017;28;20833;-78
2021/01/28 01:30:21;;;;;;;3.33;2.90;;;;;;;;;;5055323;28;20419;-75
2021/01/28 01:32:47;;;;;;;4.70;3.53;;;;;;;;;;5056073;28;20271;-75
2021/01/28 01:38:16;;;;;;;4.68;3.88;;;;;;;;;;5056018;28;20171;-74
2021/01/28 01:40:44;;;;;;;3.65;2.88;;;;;;;;;;5055755;28;20215;-74
2021/01/28 01:43:11;;;;;;;5.22;3.53;;;;;;;;;;5057832;28;20176;-74
2021/01/28 01:45:45;;;;;;;3.80;3.50;;;;;;;;;;5059903;28;20218;-75
2021/01/28 01:54:28;;;;;;;3.83;2.90;;;;;;;;;;5055446;28;20175;-76
2021/01/28 01:56:56;;;;;;;4.25;3.45;;;;;;;;;;5054708;28;20179;-76
2021/01/28 01:59:32;;;;;;;3.70;2.78;;;;;;;;;;5054772;28;20674;-74
2021/01/28 02:02:08;;;;;;;3.63;3.03;;;;;;;;;;5055325;28;20176;-76
2021/01/28 02:04:35;;;;;;;3.00;2.50;;;;;;;;;;5055395;28;20522;-75
2021/01/28 02:07:12;;;;;;;2.70;2.50;;;;;;;;;;5055592;28;20181;-75
2021/01/28 02:09:38;;;;;;;3.00;2.33;;;;;;;;;;5055127;28;20182;-76
2021/01/28 02:12:04;;;;;;;2.83;2.43;;;;;;;;;;5055092;28;20319;-76
2021/01/28 02:14:31;;;;;;;2.47;2.30;;;;;;;;;;5055113;28;20416;-75
2021/01/28 02:16:59;;;;;;;2.60;2.40;;;;;;;;;;5055086;28;20248;-75
2021/01/28 02:19:25;;;;;;;3.97;2.90;;;;;;;;;;5054889;28;20600;-75
2021/01/28 02:21:51;;;;;;;5.40;3.17;;;;;;;;;;5055132;28;20182;-76
2021/01/28 02:24:29;;;;;;;3.85;3.13;;;;;;;;;;5054818;28;20421;-76
2021/01/28 02:26:55;;;;;;;4.60;2.72;;;;;;;;;;5037186;28;20172;-75
2021/01/28 02:29:23;;;;;;;5.05;3.10;;;;;;;;;;5036699;28;20643;-75
2021/01/28 02:31:50;;;;;;;3.45;2.40;;;;;;;;;;5054995;28;20191;-75
2021/01/28 02:34:16;;;;;;;3.53;2.80;;;;;;;;;;5054969;28;20175;-76
2021/01/28 02:36:44;;;;;;;3.60;2.33;;;;;;;;;;5054807;28;20252;-76
2021/01/28 02:39:11;;;;;;;2.63;2.38;;;;;;;;;;5054524;28;20171;-76
2021/01/28 02:41:38;;;;;;;2.88;2.67;;;;;;;;;;5054605;28;20194;-75
2021/01/28 02:44:04;;;;;;;3.92;2.90;;;;;;;;;;5054551;28;20196;-75
2021/01/28 02:46:31;;;;;;;2.50;2.30;;;;;;;;;;5054520;28;20649;-76
2021/01/28 02:48:57;;;;;;;3.38;2.55;;;;;;;;;;5054249;28;20177;-75
2021/01/28 02:51:23;;;;;;;3.63;2.05;;;;;;;;;;5054337;28;20615;-76
2021/01/28 02:53:54;;;;;;;3.42;2.70;;;;;;;;;;5054334;28;20177;-75
2021/01/28 02:56:21;;;;;;;3.58;2.70;;;;;;;;;;5054443;28;20225;-74
2021/01/28 02:58:48;;;;;;;3.08;2.53;;;;;;;;;;5053995;28;20167;-75
2021/01/28 03:01:14;;;;;;;2.63;1.98;;;;;;;;;;5054031;28;20204;-75
2021/01/28 03:03:40;;;;;;;3.03;2.70;;;;;;;;;;5054258;28;20215;-76
2021/01/28 03:09:09;;;;;;;2.83;2.45;;;;;;;;;;5053908;28;20406;-76
2021/01/28 03:11:35;;;;;;;4.53;2.47;;;;;;;;;;5053565;28;20586;-76
2021/01/28 03:14:01;;;;;;;2.80;2.53;;;;;;;;;;5053867;28;20473;-76
2021/01/28 03:16:28;;;;;;;3.20;2.90;;;;;;;;;;5053822;28;20439;-75
2021/01/28 03:18:53;;;;;;;2.58;2.38;;;;;;;;;;5037722;28;20176;-74
2021/01/28 03:24:24;;;;;;;3.00;2.60;;;;;;;;;;5053009;28;20453;-75
2021/01/28 03:26:50;;;;;;;3.35;2.30;;;;;;;;;;5053781;28;20171;-76
2021/01/28 03:29:16;;;;;;;3.60;3.00;;;;;;;;;;5052624;28;20180;-77
2021/01/28 03:31:42;;;;;;;3.40;3.10;;;;;;;;;;5053486;28;20489;-77
2021/01/28 03:34:08;;;;;;;3.03;2.40;;;;;;;;;;5053551;28;20434;-77
2021/01/28 03:39:38;;;;;;;2.65;1.98;;;;;;;;;;5053782;28;20311;-75
2021/01/28 03:42:04;;;;;;;2.47;2.00;;;;;;;;;;5053539;28;20259;-76
2021/01/28 03:44:30;;;;;;;2.70;2.47;;;;;;;;;;5053593;28;20441;-75
2021/01/28 03:46:56;;;;;;;3.30;2.47;;;;;;;;;;5053539;28;20178;-76
2021/01/28 03:49:22;;;;;;;3.07;2.50;;;;;;;;;;5053324;28;20423;-75
2021/01/28 03:54:51;;;;;;;2.95;2.40;;;;;;;;;;5053190;28;20533;-76
2021/01/28 03:57:17;;;;;;;3.17;2.40;;;;;;;;;;5053122;28;20620;-77
2021/01/28 03:59:44;;;;;;;3.13;2.40;;;;;;;;;;5052611;28;20452;-76
2021/01/28 04:02:10;;;;;;;3.00;2.50;;;;;;;;;;5053093;28;20767;-76
2021/01/28 04:04:36;;;;;;;3.50;2.63;;;;;;;;;;5053209;28;20165;-76
2021/01/28 04:07:02;;;;;;;3.83;2.80;;;;;;;;;;5053151;28;20205;-76
2021/01/28 04:09:28;;;;;;;3.60;2.50;;;;;;;;;;5052900;28;20412;-75
2021/01/28 04:11:54;;;;;;;3.43;2.63;;;;;;;;;;5052712;28;20852;-75
2021/01/28 04:14:20;;;;;;;4.05;3.28;;;;;;;;;;5052962;28;20470;-76
2021/01/28 04:16:46;;;;;;;3.30;2.93;;;;;;;;;;5052917;28;20256;-75
2021/01/28 04:19:12;;;;;;;3.47;3.17;;;;;;;;;;5052319;28;20419;-76
2021/01/28 04:24:41;;;;;;;4.20;3.70;;;;;;;;;;5052830;28;20507;-78
2021/01/28 04:27:08;;;;;;;4.53;3.80;;;;;;;;;;5052797;28;20161;-76
2021/01/28 04:29:34;;;;;;;5.68;3.67;;;;;;;;;;5052208;28;20922;-76
2021/01/28 04:32:00;;;;;;;8.40;3.72;;;;;;;;;;5052759;28;20186;-76
2021/01/28 04:34:26;;;;;;;5.85;4.32;;;;;;;;;;5052737;28;20268;-77
2021/01/28 04:39:56;;;;;;;5.25;4.28;;;;;;;;;;5052552;28;20455;-75
2021/01/28 04:42:31;;;;;;;4.13;3.73;;;;;;;;;;5034843;28;20188;-76
2021/01/28 04:44:57;;;;;;;7.75;4.60;;;;;;;;;;5052766;28;20449;-76
2021/01/28 04:47:24;;;;;;;6.43;4.78;;;;;;;;;;5034688;28;20208;-74
2021/01/28 04:55:44;;;;;;;5.30;3.10;;;;;;;;;;5057971;28;20228;-75
2021/01/28 04:58:10;;;;;;;5.32;3.88;;;;;;;;;;5053567;28;20177;-74
2021/01/28 05:00:36;;;;;;;5.38;4.10;;;;;;;;;;5052108;28;20219;-76
2021/01/28 05:03:07;;;;;;;5.60;3.90;;;;;;;;;;5052133;28;20172;-74
2021/01/28 05:05:33;;;;;;;5.05;4.32;;;;;;;;;;5052234;28;20411;-75
2021/01/28 05:07:59;;;;;;;7.45;5.70;;;;;;;;;;5052417;28;20247;-76
2021/01/28 05:10:25;;;;;;;8.10;5.27;;;;;;;;;;5051959;28;20211;-76
2021/01/28 05:12:59;;;;;;;7.03;4.43;;;;;;;;;;5052502;28;20419;-76
2021/01/28 05:15:30;;;;;;;4.70;4.10;;;;;;;;;;5052130;28;20407;-76
2021/01/28 05:18:19;;;;;;;4.63;4.03;;;;;;;;;;5052161;28;20165;-75
2021/01/28 05:20:45;;;;;;;4.80;3.78;;;;;;;;;;5039411;28;20239;-76
2021/01/28 05:23:25;;;;;;;4.75;3.90;;;;;;;;;;5052248;28;20203;-75
2021/01/28 05:25:51;;;;;;;4.97;3.83;;;;;;;;;;5050655;28;20174;-75
2021/01/28 05:28:23;;;;;;;4.33;3.40;;;;;;;;;;5045091;28;20176;-75
2021/01/28 05:30:50;;;;;;;5.53;4.07;;;;;;;;;;5052520;28;20470;-76
2021/01/28 05:33:31;;;;;;;8.05;4.05;;;;;;;;;;5056094;28;20172;-74
2021/01/28 05:36:03;;;;;;;6.20;4.13;;;;;;;;;;5055998;28;20571;-76
2021/01/28 05:38:32;;;;;;;5.70;3.90;;;;;;;;;;5055896;28;20168;-76
2021/01/28 05:40:59;;;;;;;6.82;3.60;;;;;;;;;;5056121;28;20209;-75
2021/01/28 05:43:36;;;;;;;4.65;3.88;;;;;;;;;;5055989;28;20167;-77
2021/01/28 05:46:14;;;;;;;4.80;3.45;;;;;;;;;;5055679;28;20205;-74
2021/01/28 05:48:40;;;;;;;5.38;3.95;;;;;;;;;;5056079;28;20177;-75
2021/01/28 05:51:10;;;;;;;5.45;2.90;;;;;;;;;;5055719;28;20518;-75
2021/01/28 05:53:36;;;;;;;5.25;4.13;;;;;;;;;;5055542;28;20174;-76
2021/01/28 05:56:04;;;;;;;5.70;3.63;;;;;;;;;;5055449;28;20176;-74
2021/01/28 05:58:32;;;;;;;4.80;3.85;;;;;;;;;;5055119;28;20423;-76
2021/01/28 06:01:18;;;;;;;4.70;3.40;;;;;;;;;;5055325;28;20212;-76
2021/01/28 06:03:50;;;;;;;5.05;4.00;;;;;;;;;;5055600;28;20166;-76
2021/01/28 06:06:42;;;;;;;3.95;3.42;;;;;;;;;;5055320;28;20258;-77
2021/01/28 06:09:20;;;;;;;4.47;3.28;;;;;;;;;;5055277;28;20278;-76
2021/01/28 06:12:04;;;;;;;5.40;3.70;;;;;;;;;;5054997;28;20717;-76
2021/01/28 06:14:49;;;;;;;3.88;3.30;;;;;;;;;;5054886;28;20192;-77
2021/01/28 06:17:20;;;;;;;7.68;3.42;;;;;;;;;;5054841;28;20261;-76
2021/01/28 06:19:53;;;;;;;3.90;2.95;;;;;;;;;;5054555;28;20203;-76
2021/01/28 06:22:38;;;;;;;3.95;3.25;;;;;;;;;;5054651;28;20169;-79
2021/01/28 06:25:33;;;;;;;3.33;3.00;;;;;;;;;;5054614;28;20247;-75
2021/01/28 06:28:05;;;;;;;6.30;2.95;;;;;;;;;;4967047;28;20309;-76
2021/01/28 06:30:45;;;;;;;3.42;2.85;;;;;;;;;;5054766;28;20757;-75
2021/01/28 06:33:17;;;;;;;3.20;2.90;;;;;;;;;;5061855;28;20189;-77
2021/01/28 06:35:43;;;;;;;3.78;2.70;;;;;;;;;;5054681;28;20713;-76
2021/01/28 06:38:09;;;;;;;5.27;3.30;;;;;;;;;;5054439;28;20184;-75
2021/01/28 06:40:38;;;;;;;3.33;2.77;;;;;;;;;;5054084;28;20470;-75
2021/01/28 06:43:10;;;;;;;3.50;2.90;;;;;;;;;;5053876;28;20408;-74
2021/01/28 06:45:38;;;;;;;3.55;2.83;;;;;;;;;;5036086;28;20190;-75
2021/01/28 06:48:12;;;;;;;4.10;2.90;;;;;;;;;;5054429;28;20170;-75
2021/01/28 06:50:46;;;;;;;3.90;3.33;;;;;;;;;;5054343;28;20170;-75
2021/01/28 06:53:24;;;;;;;2.35;2.15;;;;;;;;;;5036232;28;20230;-75
2021/01/28 06:56:28;;;;;;;3.35;2.90;;;;;;;;;;5054376;28;20178;-75
2021/01/28 06:59:13;;;;;;;3.40;2.92;;;;;;;;;;4953671;29;20213;-75
2021/01/28 07:01:39;;;;;;;3.45;2.80;;;;;;;;;;4953739;29;20263;-78
2021/01/28 07:04:08;;;;;;;2.60;2.40;;;;;;;;;;5013357;28;20269;-79
2021/01/28 07:09:44;;;;;;;5.60;2.83;;;;;;;;;;5053993;28;20181;-77
2021/01/28 07:12:13;;;;;;;2.42;2.22;;;;;;;;;;5053716;28;20233;-79
2021/01/28 07:14:39;;;;;;;2.42;2.03;;;;;;;;;;5053756;28;20618;-77
2021/01/28 07:17:12;;;;;;;2.25;2.00;;;;;;;;;;5035665;28;20345;-79
2021/01/28 07:19:42;;;;;;;2.50;2.15;;;;;;;;;;5053710;28;20208;-75
2021/01/28 07:25:23;;;;;;;1.85;1.75;;;;;;;;;;5052459;28;20172;-76
2021/01/28 07:28:01;;;;;;;2.35;2.15;;;;;;;;;;5052630;28;20334;-77
2021/01/28 07:30:36;;;;;;;3.53;2.08;;;;;;;;;;5051810;28;20237;-76
2021/01/28 07:33:02;;;;;;;2.25;1.98;;;;;;;;;;5052938;28;20170;-77
2021/01/28 07:35:35;;;;;;;2.88;2.30;;;;;;;;;;5052372;28;20174;-75
2021/01/28 07:41:06;;;;;;;2.40;2.00;;;;;;;;;;5052088;28;20244;-76
2021/01/28 07:43:36;;;;;;;2.30;1.80;;;;;;;;;;5052089;28;20274;-74
2021/01/28 07:46:21;;;;;;;3.40;2.58;;;;;;;;;;5051858;28;20180;-76
2021/01/28 07:48:48;;;;;;;3.72;2.95;;;;;;;;;;5048755;28;20210;-74
2021/01/28 07:51:26;;;;;;;7.72;3.08;;;;;;;;;;5049895;28;20213;-76
2021/01/28 07:56:57;;;;;;;3.42;2.20;;;;;;;;;;5051228;28;20233;-76
2021/01/28 07:59:23;;;;;;;2.55;2.10;;;;;;;;;;5052019;28;20532;-77
2021/01/28 08:01:51;;;;;;;3.45;2.40;;;;;;;;;;5052006;28;20170;-78
2021/01/28 08:04:17;;;;;;;3.72;2.35;;;;;;;;;;5033798;28;20597;-77
2021/01/28 08:06:43;;;;;;;2.50;2.30;;;;;;;;;;5052200;28;20171;-78
2021/01/28 08:12:13;;;;;;;2.20;1.80;;;;;;;;;;5051726;28;20242;-79
2021/01/28 08:14:42;;;;;;;2.17;2.00;;;;;;;;;;5051725;28;20179;-77
2021/01/28 08:17:11;;;;;;;2.72;2.28;;;;;;;;;;5051452;28;20171;-77
2021/01/28 08:19:38;;;;;;;1.67;1.58;;;;;;;;;;5051488;28;20219;-77
2021/01/28 08:22:04;;;;;;;6.20;1.58;;;;;;;;;;5051723;28;20171;-78
2021/01/28 08:27:34;;;;;;;2.05;1.33;;;;;;;;;;5051881;28;20177;-78
2021/01/28 08:30:00;;;;;;;2.30;2.10;;;;;;;;;;5051478;28;20179;-79
2021/01/28 08:32:28;;;;;;;2.50;1.93;;;;;;;;;;5051622;28;20593;-80
2021/01/28 08:35:08;;;;;;;2.92;1.95;;;;;;;;;;5051407;28;20776;-79
2021/01/28 08:37:36;;;;;;;2.38;1.40;;;;;;;;;;5051395;28;20168;-79
2021/01/28 08:40:03;;;;;;;1.73;1.63;;;;;;;;;;5051243;28;20195;-78
2021/01/28 08:42:29;;;;;;;3.08;1.83;;;;;;;;;;5033691;28;20242;-78
2021/01/28 08:45:07;;;;;;;1.92;1.80;;;;;;;;;;5051057;28;20222;-78
2021/01/28 08:47:33;;;;;;;2.10;1.90;;;;;;;;;;5051151;28;20574;-78
2021/01/28 08:50:05;;;;;;;4.20;2.87;;;;;;;;;;5050972;28;20196;-79
2021/01/28 08:58:24;;;;;;;3.03;2.63;;;;;;;;;;5049750;28;20181;-76
2021/01/28 09:00:51;;;;;;;2.47;1.63;;;;;;;;;;5049699;28;20206;-78
2021/01/28 09:03:24;;;;;;;1.73;1.30;;;;;;;;;;5050219;28;20259;-81
2021/01/28 09:05:51;;;;;;;2.03;1.88;;;;;;;;;;5052105;28;20523;-77
2021/01/28 09:08:26;;;;;;;1.20;1.10;;;;;;;;;;5054225;28;20177;-77
2021/01/28 09:10:52;;;;;;;1.98;1.48;;;;;;;;;;5053044;28;20673;-77
2021/01/28 09:13:20;;;;;;;2.05;1.48;;;;;;;;;;5049856;28;20175;-78
2021/01/28 09:15:47;;;;;;;1.98;1.88;;;;;;;;;;5049436;28;20602;-75
2021/01/28 09:18:27;;;;;;;3.30;1.98;;;;;;;;;;5049691;28;20272;-77
2021/01/28 09:20:53;;;;;;;2.28;1.63;;;;;;;;;;5049414;28;20203;-78
2021/01/28 09:23:20;;;;;;;2.90;2.60;;;;;;;;;;5053668;28;20207;-78
2021/01/28 09:25:47;;;;;;;3.90;2.10;;;;;;;;;;5053718;28;20521;-76
2021/01/28 09:28:13;;;;;;;1.75;1.65;;;;;;;;;;5053629;28;20256;-79
2021/01/28 09:30:41;;;;;;;1.97;1.77;;;;;;;;;;5054015;28;20221;-80
2021/01/28 09:33:31;;;;;;;2.38;2.17;;;;;;;;;;5053726;28;20416;-80
2021/01/28 09:36:06;;;;;;;2.60;1.52;;;;;;;;;;5053764;28;20179;-77
2021/01/28 09:38:32;;;;;;;1.80;1.67;;;;;;;;;;5053453;28;20177;-79
2021/01/28 09:41:12;;;;;;;2.35;1.25;;;;;;;;;;5053312;28;20211;-82
2021/01/28 09:43:38;;;;;;;2.17;0.85;;;;;;;;;;5054152;28;20588;-78
2021/01/28 09:46:06;;;;;;;0.77;0.77;;;;;;;;;;5056974;28;20665;-80
2021/01/28 09:48:34;;;;;;;1.27;1.10;;;;;;;;;;5052827;28;20176;-79
2021/01/28 09:51:02;;;;;;;1.40;1.30;;;;;;;;;;5052068;28;20178;-80
2021/01/28 09:53:28;;;;;;;2.25;0.90;;;;;;;;;;5052299;28;20175;-76
2021/01/28 09:55:54;;;;;;;1.33;1.23;;;;;;;;;;5051976;28;20178;-79
2021/01/28 09:58:20;;;;;;;1.23;1.13;;;;;;;;;;5052402;28;20416;-76
2021/01/28 10:00:46;;;;;;;1.27;1.17;;;;;;;;;;5052832;28;20202;-77
2021/01/28 10:03:14;;;;;;;1.02;1.02;;;;;;;;;;5053103;28;20168;-78
2021/01/28 10:05:40;;;;;;;1.48;0.93;;;;;;;;;;5052791;28;20176;-77
2021/01/28 10:08:06;;;;;;;1.13;1.03;;;;;;;;;;5052967;28;20182;-77
2021/01/28 10:13:36;;;;;;;1.20;1.10;;;;;;;;;;5049508;28;20660;-76
2021/01/28 10:16:02;;;;;;;1.40;1.10;;;;;;;;;;5051244;28;20180;-76
2021/01/28 10:18:28;;;;;;;1.98;1.50;;;;;;;;;;5052108;28;20182;-79
2021/01/28 10:20:54;;;;;;;3.97;1.47;;;;;;;;;;5053330;28;20208;-77
2021/01/28 10:23:20;;;;;;;1.08;0.95;;;;;;;;;;5053979;28;20438;-78
2021/01/28 10:28:49;;;;;;;2.08;1.15;;;;;;;;;;5052688;28;20457;-76
2021/01/28 10:31:15;;;;;;;1.40;1.30;;;;;;;;;;5052432;28;20207;-78
2021/01/28 10:33:41;;;;;;;1.80;1.70;;;;;;;;;;5052708;28;20464;-79
2021/01/28 10:36:08;;;;;;;0.90;0.90;;;;;;;;;;5052726;28;20426;-76
2021/01/28 10:38:35;;;;;;;1.15;1.05;;;;;;;;;;5052473;28;20901;-75
2021/01/28 10:44:04;;;;;;;1.27;1.00;;;;;;;;;;5052740;28;20175;-78
2021/01/28 10:46:30;;;;;;;2.17;1.03;;;;;;;;;;5052179;28;20689;-77
2021/01/28 10:48:56;;;;;;;2.35;1.27;;;;;;;;;;5052188;28;20424;-75
2021/01/28 10:51:22;;;;;;;1.90;1.33;;;;;;;;;;5052288;28;20172;-77
2021/01/28 10:59:37;;;;;;;1.85;1.48;;;;;;;;;;5052429;28;20571;-76
2021/01/28 11:02:05;;;;;;;1.10;1.10;;;;;;;;;;5034143;28;20541;-78
2021/01/28 11:04:37;;;;;;;1.20;1.10;;;;;;;;;;5052165;28;20414;-78
2021/01/28 11:07:03;;;;;;;1.07;1.07;;;;;;;;;;5052147;28;20592;-80
2021/01/28 11:09:29;;;;;;;1.52;1.42;;;;;;;;;;5051679;28;20471;-76
2021/01/28 11:11:57;;;;;;;1.67;1.20;;;;;;;;;;5051699;28;20362;-77
2021/01/28 11:14:23;;;;;;;1.27;1.17;;;;;;;;;;5051862;28;20919;-76
2021/01/28 11:16:49;;;;;;;1.30;0.95;;;;;;;;;;5051579;28;20488;-77
2021/01/28 11:19:15;;;;;;;1.60;1.40;;;;;;;;;;5051593;28;20175;-78
2021/01/28 11:21:41;;;;;;;1.30;1.20;;;;;;;;;;5051608;28;20466;-80
2021/01/28 11:24:07;;;;;;;1.23;1.10;;;;;;;;;;5056476;28;20418;-81
2021/01/28 11:29:37;;;;;;;1.67;1.20;;;;;;;;;;5051519;28;20908;-78
2021/01/28 11:32:03;;;;;;;1.30;1.00;;;;;;;;;;5051307;28;20411;-76
2021/01/28 11:34:29;;;;;;;1.57;0.90;;;;;;;;;;5051156;28;20392;-76
2021/01/28 11:36:56;;;;;;;0.95;0.85;;;;;;;;;;5051567;28;20407;-76
2021/01/28 11:39:22;;;;;;;0.82;0.75;;;;;;;;;;5051128;28;20486;-76
2021/01/28 11:41:48;;;;;;;0.80;0.80;;;;;;;;;;5051244;28;20555;-77
2021/01/28 11:44:14;;;;;;;1.40;1.30;;;;;;;;;;5050868;28;20413;-77
2021/01/28 11:46:40;;;;;;;0.90;0.90;;;;;;;;;;5050892;28;20427;-76
2021/01/28 11:49:06;;;;;;;0.93;0.77;;;;;;;;;;5051598;28;20759;-76
2021/01/28 11:51:32;;;;;;;0.90;0.80;;;;;;;;;;5051894;28;20415;-76
2021/01/28 11:53:58;;;;;;;1.27;1.17;;;;;;;;;;5052106;28;20494;-76
2021/01/28 11:59:28;;;;;;;0.93;0.93;;;;;;;;;;5051872;28;20740;-76
2021/01/28 12:01:54;;;;;;;1.70;1.10;;;;;;;;;;5051646;28;20426;-76
2021/01/28 12:04:20;;;;;;;2.93;0.93;;;;;;;;;;5051550;28;20809;-75
2021/01/28 12:06:46;;;;;;;1.00;0.97;;;;;;;;;;5052164;28;20778;-76
2021/01/28 12:09:12;;;;;;;1.20;0.90;;;;;;;;;;5051596;28;20897;-75
2021/01/28 12:14:42;;;;;;;2.60;1.30;;;;;;;;;;5051547;28;20417;-77
2021/01/28 12:17:08;;;;;;;0.80;0.80;;;;;;;;;;5051742;28;20498;-76
2021/01/28 12:19:34;;;;;;;1.53;1.43;;;;;;;;;;5051520;28;20733;-75
2021/01/28 12:22:00;;;;;;;1.40;0.80;;;;;;;;;;5033631;28;20929;-74
2021/01/28 12:24:28;;;;;;;1.17;1.10;;;;;;;;;;5051406;28;20469;-74
2021/01/28 12:30:00;;;;;;;0.87;0.80;;;;;;;;;;5051465;28;20877;-74
2021/01/28 12:32:26;;;;;;;0.57;0.57;;;;;;;;;;5051577;28;20800;-74
2021/01/28 12:34:52;;;;;;;0.70;0.70;;;;;;;;;;5051367;28;20422;-74
2021/01/28 12:37:18;;;;;;;1.33;0.70;;;;;;;;;;5051613;28;20414;-74
2021/01/28 12:39:44;;;;;;;0.80;0.80;;;;;;;;;;5050828;28;20411;-74
2021/01/28 12:45:14;;;;;;;0.90;0.87;;;;;;;;;;5051377;28;20514;-74
2021/01/28 12:47:40;;;;;;;0.83;0.80;;;;;;;;;;5051249;28;20506;-75
2021/01/28 12:50:07;;;;;;;0.80;0.80;;;;;;;;;;5051379;28;20438;-75
2021/01/28 12:52:33;;;;;;;1.03;0.93;;;;;;;;;;5051456;28;20436;-75
2021/01/28 12:54:59;;;;;;;1.00;0.90;;;;;;;;;;5051135;28;20418;-76
2021/01/28 12:57:25;;;;;;;0.70;0.70;;;;;;;;;;5051308;28;20447;-74
2021/01/28 12:59:51;;;;;;;0.80;0.80;;;;;;;;;;5051090;28;20456;-75
2021/01/28 13:02:17;;;;;;;0.87;0.87;;;;;;;;;;5051335;28;20421;-75
2021/01/28 13:04:43;;;;;;;0.80;0.70;;;;;;;;;;5054738;28;20432;-76
2021/01/28 13:07:09;;;;;;;0.80;0.80;;;;;;;;;;5053663;28;20475;-77
2021/01/28 13:09:35;;;;;;;0.90;0.90;;;;;;;;;;5051746;28;20413;-75
2021/01/28 13:15:06;;;;;;;0.97;0.87;;;;;;;;;;5051151;28;20769;-81
2021/01/28 13:17:32;;;;;;;0.73;0.70;;;;;;;;;;5051038;28;20410;-79
2021/01/28 13:19:58;;;;;;;1.13;0.60;;;;;;;;;;5051078;28;20460;-81
2021/01/28 13:22:24;;;;;;;1.40;1.30;;;;;;;;;;5051040;28;20417;-80
2021/01/28 13:24:50;;;;;;;2.80;1.70;;;;;;;;;;5051054;28;20881;-79
2021/01/28 13:30:20;;;;;;;0.90;0.70;;;;;;;;;;5051097;28;20876;-81
2021/01/28 13:32:46;;;;;;;0.80;0.70;;;;;;;;;;5033384;28;20441;-77
2021/01/28 13:35:14;;;;;;;0.50;0.50;;;;;;;;;;5050950;28;20423;-78
2021/01/28 13:37:40;;;;;;;0.63;0.63;;;;;;;;;;5050968;28;20409;-79
2021/01/28 13:40:06;;;;;;;0.80;0.70;;;;;;;;;;5051275;28;20557;-82
2021/01/28 13:45:36;;;;;;;1.83;0.63;;;;;;;;;;5050017;28;20941;-81
2021/01/28 13:48:03;;;;;;;1.93;1.20;;;;;;;;;;5050600;28;20408;-79
2021/01/28 13:50:30;;;;;;;1.00;0.93;;;;;;;;;;5050877;28;20511;-81
2021/01/28 13:52:56;;;;;;;1.37;1.10;;;;;;;;;;5052805;28;20501;-79
2021/01/28 14:01:10;;;;;;;1.07;0.90;;;;;;;;;;5058739;28;20475;-80
2021/01/28 14:03:36;;;;;;;1.87;1.10;;;;;;;;;;5054924;28;20453;-81
2021/01/28 14:06:02;;;;;;;1.40;1.10;;;;;;;;;;5054760;28;20435;-79
2021/01/28 14:08:28;;;;;;;2.40;0.80;;;;;;;;;;5055631;28;20437;-79
2021/01/28 14:13:58;;;;;;;1.07;0.60;;;;;;;;;;5054924;28;20759;-79
2021/01/28 14:16:24;;;;;;;1.03;0.90;;;;;;;;;;5054392;28;20409;-81
2021/01/28 14:18:50;;;;;;;0.50;0.50;;;;;;;;;;5054529;28;20415;-79
2021/01/28 14:21:16;;;;;;;3.80;1.30;;;;;;;;;;5054942;28;20556;-79
2021/01/28 14:23:42;;;;;;;2.53;1.50;;;;;;;;;;5054471;28;20428;-78
2021/01/28 14:29:11;;;;;;;1.53;1.30;;;;;;;;;;5054773;28;20977;-79
2021/01/28 14:31:37;;;;;;;2.97;1.20;;;;;;;;;;5054464;28;20766;-79
2021/01/28 14:34:04;;;;;;;0.93;0.60;;;;;;;;;;5053921;28;20552;-79
2021/01/28 14:36:30;;;;;;;1.57;1.00;;;;;;;;;;5054297;28;20514;-79
2021/01/28 14:38:56;;;;;;;4.20;1.30;;;;;;;;;;5054278;28;20446;-78
2021/01/28 14:44:26;;;;;;;1.80;1.10;;;;;;;;;;5054589;28;20413;-78
2021/01/28 14:46:52;;;;;;;1.73;0.80;;;;;;;;;;5054348;28;20409;-76
2021/01/28 14:49:18;;;;;;;1.43;1.33;;;;;;;;;;5054358;28;20418;-78
2021/01/28 14:51:44;;;;;;;2.93;1.23;;;;;;;;;;5054222;28;20764;-78
2021/01/28 14:54:10;;;;;;;1.50;1.30;;;;;;;;;;5054285;28;20436;-77
2021/01/28 14:59:40;;;;;;;4.63;1.50;;;;;;;;;;5054136;28;20509;-78
2021/01/28 15:02:07;;;;;;;2.83;1.60;;;;;;;;;;5054217;28;20445;-78
2021/01/28 15:04:32;;;;;;;1.37;1.10;;;;;;;;;;5053317;28;20433;-80
2021/01/28 15:06:59;;;;;;;1.50;0.80;;;;;;;;;;5054203;28;20414;-78
2021/01/28 15:09:25;;;;;;;1.03;0.80;;;;;;;;;;5054177;28;20497;-78
2021/01/28 15:14:54;;;;;;;0.50;0.40;;;;;;;;;;5054092;28;20548;-79
2021/01/28 15:17:22;;;;;;;0.90;0.70;;;;;;;;;;5053463;28;20899;-80
2021/01/28 15:19:49;;;;;;;0.70;0.40;;;;;;;;;;5054002;28;20769;-77
2021/01/28 15:22:15;;;;;;;2.00;0.63;;;;;;;;;;5054184;28;20896;-77
2021/01/28 15:24:42;;;;;;;0.40;0.37;;;;;;;;;;5053890;28;20406;-76
2021/01/28 15:30:12;;;;;;;0.67;0.40;;;;;;;;;;5053792;28;20916;-77
2021/01/28 15:32:38;;;;;;;0.77;0.60;;;;;;;;;;5053744;28;20417;-78
2021/01/28 15:35:04;;;;;;;1.00;0.90;;;;;;;;;;5053310;28;20415;-80
2021/01/28 15:37:30;;;;;;;0.63;0.60;;;;;;;;;;5053820;28;20502;-80
2021/01/28 15:39:56;;;;;;;0.73;0.40;;;;;;;;;;5053379;28;20573;-81
2021/01/28 15:45:26;;;;;;;0.50;0.30;;;;;;;;;;5058362;28;20773;-79
2021/01/28 15:47:52;;;;;;;0.93;0.50;;;;;;;;;;5059138;28;20731;-78
2021/01/28 15:50:18;;;;;;;0.40;0.40;;;;;;;;;;5053340;28;20423;-80
2021/01/28 15:52:44;;;;;;;0.60;0.40;;;;;;;;;;5053825;28;20407;-78
2021/01/28 15:55:10;;;;;;;1.30;0.67;;;;;;;;;;5053338;28;20756;-78
2021/01/28 16:00:40;;;;;;;0.70;0.70;;;;;;;;;;5053315;28;20473;-77
2021/01/28 16:03:06;;;;;;;0.60;0.60;;;;;;;;;;5044989;28;20455;-78
2021/01/28 16:05:32;;;;;;;1.40;0.83;;;;;;;;;;5035093;28;20441;-80
2021/01/28 16:07:59;;;;;;;0.73;0.70;;;;;;;;;;5053107;28;20425;-77
2021/01/28 16:10:25;;;;;;;1.37;1.27;;;;;;;;;;5035114;28;20928;-79
2021/01/28 16:15:54;;;;;;;0.50;0.40;;;;;;;;;;5051320;28;20437;-77
2021/01/28 16:18:22;;;;;;;0.73;0.60;;;;;;;;;;5051775;28;20448;-79
2021/01/28 16:20:48;;;;;;;2.50;1.47;;;;;;;;;;5052442;28;20963;-80
2021/01/28 16:23:14;;;;;;;1.30;1.00;;;;;;;;;;5052942;28;20410;-80
2021/01/28 16:25:40;;;;;;;7.50;4.63;;;;;;;;;;5052419;28;20422;-79
2021/01/28 16:31:10;;;;;;;0.50;0.30;;;;;;;;;;5052564;28;20421;-80
2021/01/28 16:33:35;;;;;;;0.60;0.60;;;;;;;;;;5052316;28;20440;-83
2021/01/28 16:36:02;;;;;;;0.60;0.40;;;;;;;;;;5052443;28;20485;-81
2021/01/28 16:38:28;;;;;;;0.80;0.50;;;;;;;;;;5052719;28;20502;-81
2021/01/28 16:40:54;;;;;;;0.80;0.50;;;;;;;;;;5052454;28;20493;-80
2021/01/28 16:46:25;;;;;;;0.63;0.30;;;;;;;;;;5052516;28;20436;-81
2021/01/28 16:48:51;;;;;;;0.60;0.43;;;;;;;;;;5052323;28;20453;-84
2021/01/28 16:51:17;;;;;;;0.40;0.30;;;;;;;;;;5051719;28;20861;-79
2021/01/28 16:53:43;;;;;;;0.40;0.40;;;;;;;;;;5052052;28;20434;-80
2021/01/28 16:56:09;;;;;;;0.47;0.47;;;;;;;;;;5052511;28;20497;-76
2021/01/28 17:01:38;;;;;;;0.40;0.30;;;;;;;;;;5052451;28;20472;-78
2021/01/28 17:04:04;;;;;;;0.50;0.40;;;;;;;;;;5034442;28;20446;-78
2021/01/28 17:06:30;;;;;;;0.60;0.50;;;;;;;;;;5051960;28;20488;-83
2021/01/28 17:08:56;;;;;;;0.80;0.63;;;;;;;;;;5052613;28;20410;-80
2021/01/28 17:11:22;;;;;;;0.67;0.53;;;;;;;;;;5034226;28;20493;-78
2021/01/28 17:16:52;;;;;;;0.90;0.63;;;;;;;;;;5052379;28;20447;-79
2021/01/28 17:19:18;;;;;;;1.87;0.60;;;;;;;;;;5034290;28;20442;-78
2021/01/28 17:21:44;;;;;;;0.40;0.40;;;;;;;;;;5052172;28;20474;-79
2021/01/28 17:24:10;;;;;;;2.77;2.23;;;;;;;;;;5052056;28;20413;-80
2021/01/28 17:26:36;;;;;;;0.40;0.40;;;;;;;;;;5053626;28;20433;-78